Time;durP1;ratioP1;P1;durP2;ratioP2;P2;SDS_P1;SDS_P2;PMS_P1;PMS_P2;Temp;Humidity;BMP_temperature;BMP_pressure;BME280_temperature;BME280_humidity;BME280_pressure;Samples;Min_cycle;Max_cycle;Signal;HPM_P1;HPM_P2
2022/02/12 00:00:56;;;;;;;22.00;20.90;;;16.90;74.40;;;;;;5022144;28;20456;-48
2022/02/12 00:03:24;;;;;;;22.00;20.90;;;16.90;73.90;;;;;;5021470;28;20564;-47
2022/02/12 00:05:51;;;;;;;21.00;20.10;;;16.80;72.80;;;;;;5021722;28;20927;-46
2022/02/12 00:08:19;;;;;;;21.80;20.80;;;16.80;72.80;;;;;;5021683;28;20483;-46
2022/02/12 00:10:46;;;;;;;22.13;20.93;;;16.80;73.10;;;;;;5021329;28;20480;-47
2022/02/12 00:13:13;;;;;;;21.83;20.73;;;16.80;73.20;;;;;;5021256;28;21013;-49
2022/02/12 00:15:40;;;;;;;21.47;20.47;;;16.70;73.40;;;;;;5019891;28;20970;-50
2022/02/12 00:18:06;;;;;;;21.33;20.33;;;16.70;74.10;;;;;;5027078;28;20481;-47
2022/02/12 00:20:33;;;;;;;21.83;20.73;;;16.70;74.10;;;;;;5040742;28;20493;-49
2022/02/12 00:23:00;;;;;;;21.40;20.40;;;16.60;73.10;;;;;;5040783;28;20455;-47
2022/02/12 00:25:28;;;;;;;20.87;19.80;;;16.60;72.90;;;;;;5040571;28;20459;-49
2022/02/12 00:27:55;;;;;;;21.20;20.20;;;16.50;73.00;;;;;;5040534;28;20908;-48
2022/02/12 00:30:22;;;;;;;21.93;20.83;;;16.50;73.30;;;;;;5040787;28;20455;-47
2022/02/12 00:32:49;;;;;;;21.60;20.60;;;16.40;73.40;;;;;;5040754;28;20709;-47
2022/02/12 00:35:16;;;;;;;21.60;20.60;;;16.40;73.40;;;;;;5041072;28;20448;-47
2022/02/12 00:37:43;;;;;;;21.93;20.83;;;16.40;73.60;;;;;;5037967;28;20445;-49
2022/02/12 00:40:11;;;;;;;22.13;21.03;;;16.30;73.70;;;;;;5020527;28;20477;-50
2022/02/12 00:42:39;;;;;;;21.63;20.63;;;16.30;73.80;;;;;;5020781;28;20449;-47
2022/02/12 00:45:07;;;;;;;22.40;21.40;;;16.20;73.70;;;;;;5020521;28;20454;-48
2022/02/12 00:47:34;;;;;;;22.87;21.67;;;16.20;73.90;;;;;;5021375;28;20832;-48
2022/02/12 00:50:01;;;;;;;22.10;21.00;;;16.20;74.10;;;;;;5040372;28;20861;-52
2022/02/12 00:52:28;;;;;;;21.27;20.30;;;16.10;74.10;;;;;;5040154;28;20963;-51
2022/02/12 00:54:55;;;;;;;22.93;21.77;;;16.10;75.70;;;;;;5040508;28;20449;-48
2022/02/12 00:57:21;;;;;;;21.63;20.63;;;16.10;77.00;;;;;;5036053;28;20543;-48
2022/02/12 00:59:49;;;;;;;22.10;21.00;;;16.20;78.50;;;;;;5020095;28;20465;-49
2022/02/12 01:02:16;;;;;;;21.13;20.03;;;16.30;79.00;;;;;;5031790;28;20827;-49
2022/02/12 01:04:43;;;;;;;21.77;20.63;;;16.30;78.70;;;;;;5032119;28;20449;-46
2022/02/12 01:07:09;;;;;;;21.77;20.63;;;16.40;78.30;;;;;;5032165;28;20456;-47
2022/02/12 01:09:37;;;;;;;21.20;20.20;;;16.50;77.90;;;;;;5031925;28;20476;-46
2022/02/12 01:12:06;;;;;;;21.30;20.00;;;16.60;77.70;;;;;;5032009;28;20810;-47
2022/02/12 01:14:33;;;;;;;22.67;21.57;;;16.70;77.00;;;;;;5032953;28;20453;-47
2022/02/12 01:17:02;;;;;;;21.80;20.80;;;16.90;75.80;;;;;;5032151;28;20532;-51
2022/02/12 01:19:28;;;;;;;21.87;20.87;;;17.10;74.40;;;;;;5012217;28;20473;-47
2022/02/12 01:21:55;;;;;;;22.00;20.90;;;17.20;73.20;;;;;;5017162;28;20438;-48
2022/02/12 01:24:22;;;;;;;21.73;20.63;;;17.30;72.00;;;;;;5031895;28;20449;-47
2022/02/12 01:26:51;;;;;;;21.87;20.77;;;17.40;70.80;;;;;;5031382;28;20441;-49
2022/02/12 01:29:17;;;;;;;21.63;20.60;;;17.50;69.90;;;;;;5049907;28;20825;-48
2022/02/12 01:31:44;;;;;;;21.77;20.63;;;17.60;68.90;;;;;;5051584;28;20482;-47
2022/02/12 01:34:12;;;;;;;22.50;21.40;;;17.70;68.00;;;;;;5051726;28;20444;-47
2022/02/12 01:36:40;;;;;;;22.70;21.60;;;17.80;67.20;;;;;;5051424;28;20528;-48
2022/02/12 01:39:07;;;;;;;23.13;21.93;;;17.80;66.30;;;;;;5034467;28;20492;-50
2022/02/12 01:41:34;;;;;;;22.20;21.10;;;17.90;65.60;;;;;;5031753;28;20441;-47
2022/02/12 01:44:07;;;;;;;23.00;21.70;;;17.90;64.80;;;;;;5031515;28;20441;-47
2022/02/12 01:46:34;;;;;;;22.63;21.23;;;18.00;64.10;;;;;;5031682;28;20456;-47
2022/02/12 01:49:01;;;;;;;21.80;20.80;;;18.10;63.90;;;;;;5047705;28;20518;-49
2022/02/12 01:51:29;;;;;;;22.60;21.40;;;18.20;63.90;;;;;;5051448;28;20484;-47
2022/02/12 01:53:56;;;;;;;22.33;21.20;;;18.30;63.30;;;;;;5051536;28;20441;-49
2022/02/12 01:56:23;;;;;;;22.00;20.90;;;18.40;62.50;;;;;;5051327;28;20439;-48
2022/02/12 01:58:50;;;;;;;22.30;21.10;;;18.50;61.80;;;;;;5035168;28;20469;-49
2022/02/12 02:01:17;;;;;;;21.93;20.90;;;18.60;61.10;;;;;;5031567;28;20444;-48
2022/02/12 02:03:43;;;;;;;22.53;21.43;;;18.60;60.30;;;;;;5031472;28;20449;-50
2022/02/12 02:06:10;;;;;;;21.30;20.30;;;18.70;59.80;;;;;;5031172;28;20943;-49
2022/02/12 02:08:38;;;;;;;21.80;20.80;;;18.70;59.40;;;;;;5044874;28;20477;-51
2022/02/12 02:11:05;;;;;;;22.23;21.03;;;18.80;59.00;;;;;;5051149;28;20503;-48
2022/02/12 02:13:32;;;;;;;21.97;20.87;;;18.80;59.10;;;;;;5051360;28;20798;-48
2022/02/12 02:15:59;;;;;;;22.70;21.50;;;18.90;58.30;;;;;;5051333;28;20443;-48
2022/02/12 02:18:26;;;;;;;22.60;21.40;;;18.90;57.90;;;;;;5038822;28;20465;-50
2022/02/12 02:20:52;;;;;;;21.47;20.47;;;19.00;57.80;;;;;;5031073;28;20464;-47
2022/02/12 02:23:20;;;;;;;22.53;21.43;;;19.00;57.80;;;;;;5031252;28;20441;-48
2022/02/12 02:25:47;;;;;;;21.93;20.83;;;19.10;57.70;;;;;;5031120;28;20468;-48
2022/02/12 02:28:14;;;;;;;22.77;21.57;;;19.20;57.30;;;;;;5041188;28;20448;-50
2022/02/12 02:30:41;;;;;;;22.40;21.20;;;19.20;56.80;;;;;;5051299;28;20448;-48
2022/02/12 02:33:08;;;;;;;22.47;21.27;;;19.30;56.50;;;;;;5050991;28;20486;-51
2022/02/12 02:35:35;;;;;;;22.23;21.20;;;19.40;56.20;;;;;;5050891;28;20444;-46
2022/02/12 02:38:07;;;;;;;22.73;21.73;;;19.40;55.80;;;;;;5040982;28;20449;-50
2022/02/12 02:40:35;;;;;;;22.40;21.20;;;19.40;55.50;;;;;;5034947;28;20454;-48
2022/02/12 02:43:02;;;;;;;23.00;21.80;;;19.50;55.30;;;;;;5034777;28;20468;-47
2022/02/12 02:45:29;;;;;;;22.30;21.30;;;19.50;55.00;;;;;;5034819;28;20441;-49
2022/02/12 02:47:58;;;;;;;23.40;22.00;;;19.60;54.90;;;;;;5042927;28;20814;-47
2022/02/12 02:56:02;;;;;;;22.40;21.30;;;19.60;54.60;;;;;;5054446;28;20419;-47
2022/02/12 02:58:34;;;;;;;22.80;21.63;;;19.60;54.50;;;;;;5039150;28;20467;-49
2022/02/12 03:01:03;;;;;;;22.43;21.30;;;19.70;54.20;;;;;;5034610;28;20460;-51
2022/02/12 03:03:30;;;;;;;22.47;21.23;;;19.80;54.10;;;;;;5034699;28;20452;-48
2022/02/12 03:05:57;;;;;;;22.30;21.20;;;19.80;53.80;;;;;;5034173;28;20453;-51
2022/02/12 03:08:24;;;;;;;23.20;22.10;;;19.90;53.60;;;;;;5049389;28;20527;-48
2022/02/12 03:10:51;;;;;;;21.97;20.97;;;19.90;53.30;;;;;;5054374;28;20527;-48
2022/02/12 03:13:19;;;;;;;22.93;21.73;;;19.90;53.10;;;;;;5053985;28;20476;-47
2022/02/12 03:15:47;;;;;;;24.00;22.80;;;19.90;52.90;;;;;;5041516;28;20449;-49
2022/02/12 03:18:14;;;;;;;22.07;21.07;;;20.00;53.30;;;;;;5034074;28;20456;-47
2022/02/12 03:20:40;;;;;;;23.20;22.00;;;20.00;52.60;;;;;;5034076;28;20441;-47
2022/02/12 03:23:08;;;;;;;22.70;21.67;;;20.00;52.40;;;;;;5034079;28;20444;-53
2022/02/12 03:25:35;;;;;;;22.60;21.50;;;20.00;52.30;;;;;;5044132;28;20460;-48
2022/02/12 03:28:04;;;;;;;22.73;21.67;;;20.00;52.10;;;;;;5053654;28;20436;-50
2022/02/12 03:30:34;;;;;;;22.70;21.40;;;20.00;52.10;;;;;;5053748;28;20534;-47
2022/02/12 03:33:00;;;;;;;23.70;22.30;;;20.00;52.30;;;;;;5053635;28;20487;-49
2022/02/12 03:35:27;;;;;;;22.77;21.67;;;20.10;52.30;;;;;;5044049;28;20452;-49
2022/02/12 03:37:55;;;;;;;22.80;21.70;;;20.10;52.70;;;;;;5033803;28;20818;-47
2022/02/12 03:40:22;;;;;;;23.30;22.07;;;20.20;51.90;;;;;;5033861;28;20445;-49
2022/02/12 03:42:49;;;;;;;23.00;21.90;;;20.20;51.70;;;;;;5033776;28;20479;-47
2022/02/12 03:45:16;;;;;;;21.83;20.87;;;20.30;51.50;;;;;;5040800;28;20448;-47
2022/02/12 03:47:44;;;;;;;22.57;21.37;;;20.30;51.30;;;;;;5053534;28;20947;-49
2022/02/12 03:50:11;;;;;;;22.87;21.67;;;20.30;51.20;;;;;;5052864;28;20480;-47
2022/02/12 03:52:38;;;;;;;23.27;22.13;;;20.30;51.00;;;;;;5053315;28;20483;-47
2022/02/12 03:55:06;;;;;;;21.73;20.73;;;20.30;51.10;;;;;;5047591;28;20552;-49
2022/02/12 03:57:32;;;;;;;22.40;21.27;;;20.40;51.30;;;;;;5033299;28;20445;-49
2022/02/12 03:59:59;;;;;;;22.30;21.20;;;20.50;51.40;;;;;;5033191;28;20468;-51
2022/02/12 04:02:27;;;;;;;24.03;22.43;;;20.60;51.20;;;;;;5033271;28;20437;-49
2022/02/12 04:04:55;;;;;;;22.47;21.37;;;20.80;51.00;;;;;;5036968;28;20456;-49
2022/02/12 04:07:21;;;;;;;22.23;21.13;;;20.90;50.60;;;;;;5052834;28;20444;-47
2022/02/12 04:09:48;;;;;;;22.60;21.50;;;21.00;50.30;;;;;;5053134;28;20821;-48
2022/02/12 04:12:15;;;;;;;23.60;22.50;;;21.10;50.10;;;;;;5053098;28;20484;-50
2022/02/12 04:14:41;;;;;;;22.20;21.20;;;21.10;49.80;;;;;;5050918;28;20451;-46
2022/02/12 04:17:08;;;;;;;23.40;22.20;;;21.20;49.60;;;;;;5032813;28;20450;-52
2022/02/12 04:19:35;;;;;;;22.57;21.50;;;21.30;49.30;;;;;;5032826;28;20472;-47
2022/02/12 04:22:03;;;;;;;22.23;21.23;;;21.30;49.10;;;;;;5033140;28;20441;-47
2022/02/12 04:24:30;;;;;;;23.00;21.87;;;21.30;48.90;;;;;;5033018;28;20445;-48
2022/02/12 04:26:57;;;;;;;22.90;21.60;;;21.40;49.30;;;;;;5012921;28;20807;-48
2022/02/12 04:29:24;;;;;;;22.57;21.47;;;21.40;48.50;;;;;;5026596;28;21009;-48
2022/02/12 04:31:50;;;;;;;22.60;21.50;;;21.40;48.50;;;;;;5032699;28;20481;-50
2022/02/12 04:34:18;;;;;;;22.60;21.50;;;21.50;48.60;;;;;;5032760;28;20452;-47
2022/02/12 04:36:45;;;;;;;22.87;21.77;;;21.60;48.50;;;;;;5050201;28;20538;-48
2022/02/12 04:39:13;;;;;;;23.03;21.83;;;21.70;48.30;;;;;;5042893;28;21008;-47
2022/02/12 04:41:40;;;;;;;22.80;21.70;;;21.70;48.00;;;;;;5050120;28;20953;-47
2022/02/12 04:44:07;;;;;;;22.80;21.60;;;21.80;47.80;;;;;;5052571;28;20444;-51
2022/02/12 04:46:34;;;;;;;22.30;21.20;;;21.90;47.60;;;;;;5035765;28;20457;-52
2022/02/12 04:49:01;;;;;;;22.90;21.80;;;21.80;47.40;;;;;;5032392;28;20480;-49
2022/02/12 04:51:28;;;;;;;23.40;22.30;;;21.90;47.30;;;;;;5032624;28;20468;-49
2022/02/12 04:53:56;;;;;;;22.97;21.83;;;21.90;47.20;;;;;;5032393;28;20492;-49
2022/02/12 04:56:24;;;;;;;21.63;20.73;;;21.90;47.00;;;;;;5046562;28;20440;-45
2022/02/12 04:58:51;;;;;;;22.20;21.20;;;21.90;47.00;;;;;;5052458;28;20838;-50
2022/02/12 05:01:21;;;;;;;22.30;21.20;;;21.90;47.00;;;;;;5051885;28;20463;-48
2022/02/12 05:03:49;;;;;;;22.60;21.60;;;22.00;47.10;;;;;;5053132;28;20451;-49
2022/02/12 05:06:16;;;;;;;22.70;21.57;;;22.10;46.90;;;;;;5038155;28;20594;-51
2022/02/12 05:08:43;;;;;;;23.13;21.93;;;22.10;46.70;;;;;;5032005;28;20466;-51
2022/02/12 05:11:10;;;;;;;23.23;22.13;;;22.20;46.50;;;;;;5032169;28;20450;-47
2022/02/12 05:13:39;;;;;;;23.30;22.20;;;22.20;46.40;;;;;;5032023;28;20481;-46
2022/02/12 05:16:07;;;;;;;24.67;22.97;;;22.30;46.20;;;;;;5043427;28;20459;-48
2022/02/12 05:18:33;;;;;;;22.70;21.60;;;22.30;46.10;;;;;;5051320;28;20480;-46
2022/02/12 05:21:00;;;;;;;21.93;20.90;;;22.30;46.00;;;;;;5051837;28;20448;-48
2022/02/12 05:23:27;;;;;;;23.40;22.20;;;22.30;46.20;;;;;;5051766;28;20452;-48
2022/02/12 05:25:54;;;;;;;22.77;21.67;;;22.30;46.10;;;;;;5051088;28;20444;-51
2022/02/12 05:28:20;;;;;;;23.63;22.27;;;22.40;45.90;;;;;;5051650;28;20460;-50
2022/02/12 05:30:48;;;;;;;22.77;21.73;;;22.50;45.80;;;;;;5051510;28;20762;-46
2022/02/12 05:33:15;;;;;;;22.63;21.30;;;22.50;45.60;;;;;;5051508;28;20487;-46
2022/02/12 05:35:42;;;;;;;22.53;21.43;;;22.50;45.50;;;;;;5042852;28;20452;-47
2022/02/12 05:38:09;;;;;;;22.77;21.67;;;22.50;45.40;;;;;;5031560;28;20464;-49
2022/02/12 05:40:36;;;;;;;21.83;20.83;;;22.50;45.30;;;;;;5031726;28;20498;-46
2022/02/12 05:43:02;;;;;;;22.83;21.73;;;22.60;45.30;;;;;;5031589;28;20441;-46
2022/02/12 05:45:29;;;;;;;23.20;22.00;;;22.60;45.20;;;;;;5037504;28;20531;-50
2022/02/12 05:47:59;;;;;;;22.60;21.50;;;22.50;45.00;;;;;;5051364;28;20546;-50
2022/02/12 05:50:28;;;;;;;23.37;22.07;;;22.60;45.10;;;;;;5051472;28;20439;-48
2022/02/12 05:52:56;;;;;;;23.77;22.50;;;22.60;45.00;;;;;;5051461;28;20579;-47
2022/02/12 05:55:22;;;;;;;23.27;21.87;;;22.50;44.90;;;;;;5046555;28;20442;-48
2022/02/12 05:57:49;;;;;;;23.37;22.27;;;22.50;44.80;;;;;;5051512;28;20471;-48
2022/02/12 06:00:17;;;;;;;23.60;22.50;;;22.50;44.80;;;;;;5051310;28;20981;-46
2022/02/12 06:02:44;;;;;;;24.17;22.90;;;22.40;44.70;;;;;;5051578;28;20447;-46
2022/02/12 06:05:12;;;;;;;22.57;21.57;;;22.40;44.70;;;;;;5051032;28;20502;-48
2022/02/12 06:07:38;;;;;;;23.00;21.80;;;22.40;44.70;;;;;;5051209;28;20942;-46
2022/02/12 06:10:06;;;;;;;23.30;22.10;;;22.30;44.70;;;;;;5051211;28;20551;-50
2022/02/12 06:12:32;;;;;;;22.53;21.47;;;22.30;44.70;;;;;;5052866;28;20512;-48
2022/02/12 06:15:00;;;;;;;22.90;21.80;;;22.20;44.70;;;;;;5053651;28;20441;-48
2022/02/12 06:17:26;;;;;;;22.57;21.47;;;22.20;44.80;;;;;;5035201;28;20943;-47
2022/02/12 06:19:54;;;;;;;23.20;22.10;;;22.10;44.70;;;;;;5035243;28;20469;-47
2022/02/12 06:22:24;;;;;;;22.80;21.60;;;22.10;44.80;;;;;;5035233;28;21030;-46
2022/02/12 06:24:50;;;;;;;22.93;21.83;;;22.00;44.80;;;;;;5035180;28;20935;-49
2022/02/12 06:27:17;;;;;;;22.60;21.50;;;21.90;44.90;;;;;;5049731;28;20812;-46
2022/02/12 06:29:44;;;;;;;23.23;22.13;;;21.90;44.90;;;;;;5055011;28;20475;-45
2022/02/12 06:32:11;;;;;;;25.30;24.10;;;21.80;45.00;;;;;;5054835;28;20444;-49
2022/02/12 06:34:38;;;;;;;30.00;28.60;;;21.70;45.50;;;;;;5054801;28;20452;-49
2022/02/12 06:37:05;;;;;;;35.93;34.17;;;21.70;46.40;;;;;;5036220;28;20784;-49
2022/02/12 06:39:34;;;;;;;30.10;28.60;;;21.60;47.70;;;;;;5034859;28;20473;-47
2022/02/12 06:42:01;;;;;;;32.27;30.57;;;21.60;49.30;;;;;;5034709;28;20503;-48
2022/02/12 06:44:28;;;;;;;34.17;32.60;;;21.50;49.50;;;;;;5034810;28;20927;-59
2022/02/12 06:46:55;;;;;;;34.50;33.00;;;21.50;49.30;;;;;;5050489;28;20444;-47
2022/02/12 06:49:22;;;;;;;32.03;30.63;;;21.40;49.70;;;;;;5054456;28;20845;-47
2022/02/12 06:51:49;;;;;;;33.67;32.17;;;21.30;50.20;;;;;;5054908;28;20440;-45
2022/02/12 06:54:15;;;;;;;32.87;30.83;;;21.30;50.80;;;;;;5054773;28;20488;-44
2022/02/12 06:56:43;;;;;;;32.63;31.23;;;21.20;51.10;;;;;;5040459;28;20529;-45
2022/02/12 06:59:10;;;;;;;32.30;30.83;;;21.20;51.40;;;;;;5034894;28;20464;-46
2022/02/12 07:01:37;;;;;;;31.67;29.80;;;21.10;51.20;;;;;;5034477;28;20804;-45
2022/02/12 07:04:04;;;;;;;31.10;29.40;;;21.00;51.30;;;;;;5034776;28;20449;-57
2022/02/12 07:06:31;;;;;;;30.53;29.13;;;20.90;51.40;;;;;;5046243;28;20522;-45
2022/02/12 07:08:58;;;;;;;30.67;29.33;;;20.60;52.70;;;;;;5054234;28;20468;-49
2022/02/12 07:11:25;;;;;;;28.50;27.23;;;20.30;53.50;;;;;;5054176;28;20514;-45
2022/02/12 07:13:53;;;;;;;31.40;29.80;;;20.10;54.00;;;;;;5054170;28;20484;-45
2022/02/12 07:16:19;;;;;;;28.53;27.03;;;20.00;54.40;;;;;;5043776;28;20438;-47
2022/02/12 07:18:48;;;;;;;32.53;31.03;;;20.00;54.60;;;;;;5039433;28;20667;-48
2022/02/12 07:21:14;;;;;;;34.17;32.53;;;19.90;54.70;;;;;;5034157;28;20959;-46
2022/02/12 07:23:41;;;;;;;29.10;27.90;;;19.90;55.20;;;;;;5033379;28;20453;-47
2022/02/12 07:26:08;;;;;;;28.47;27.13;;;19.90;55.70;;;;;;5042104;28;20444;-47
2022/02/12 07:28:35;;;;;;;27.70;26.43;;;19.80;55.90;;;;;;5049394;28;20457;-48
2022/02/12 07:31:03;;;;;;;30.57;28.97;;;19.80;56.00;;;;;;5033861;28;20455;-47
2022/02/12 07:33:30;;;;;;;30.53;29.20;;;19.70;56.10;;;;;;5034179;28;20477;-46
2022/02/12 07:35:57;;;;;;;30.77;29.33;;;19.70;56.20;;;;;;5040357;28;20475;-50
2022/02/12 07:38:24;;;;;;;34.00;32.17;;;19.60;56.10;;;;;;5053429;28;20468;-48
2022/02/12 07:40:51;;;;;;;29.50;28.10;;;19.60;56.20;;;;;;5053824;28;20444;-46
2022/02/12 07:43:17;;;;;;;28.87;27.67;;;19.60;56.30;;;;;;5053700;28;20452;-47
2022/02/12 07:45:44;;;;;;;29.60;28.30;;;19.50;56.40;;;;;;5048690;28;20442;-46
2022/02/12 07:48:12;;;;;;;28.67;27.40;;;19.50;56.70;;;;;;5033361;28;20453;-48
2022/02/12 07:50:39;;;;;;;27.67;26.47;;;19.50;56.90;;;;;;5035267;28;20449;-51
2022/02/12 07:53:06;;;;;;;28.10;26.80;;;19.40;57.10;;;;;;5034257;28;20485;-50
2022/02/12 07:55:33;;;;;;;29.07;27.50;;;19.40;57.20;;;;;;5036547;28;20500;-51
2022/02/12 07:58:00;;;;;;;30.27;28.53;;;19.30;57.30;;;;;;5054190;28;20440;-46
2022/02/12 08:00:27;;;;;;;27.80;26.30;;;19.30;57.60;;;;;;5054239;28;20440;-54
2022/02/12 08:02:56;;;;;;;25.23;24.13;;;19.20;58.10;;;;;;5053615;28;20460;-54
2022/02/12 08:05:24;;;;;;;25.67;24.47;;;19.20;58.60;;;;;;5051973;28;20903;-53
2022/02/12 08:07:51;;;;;;;25.00;24.00;;;19.10;58.80;;;;;;5034128;28;20452;-52
2022/02/12 08:13:03;;;;;;;27.83;26.47;;;18.90;59.50;;;;;;5034371;28;20480;-54
2022/02/12 08:15:30;;;;;;;28.27;26.90;;;18.80;60.90;;;;;;5035599;28;20441;-51
2022/02/12 08:17:57;;;;;;;29.00;27.60;;;18.70;62.40;;;;;;5053744;28;20452;-55
2022/02/12 08:20:25;;;;;;;26.40;24.90;;;18.70;63.50;;;;;;5053805;28;20453;-49
2022/02/12 08:22:52;;;;;;;29.27;27.40;;;18.70;66.90;;;;;;5054063;28;20452;-48
2022/02/12 08:25:20;;;;;;;25.63;24.23;;;18.60;73.10;;;;;;5054249;28;20807;-50
2022/02/12 08:27:47;;;;;;;30.47;28.50;;;18.70;88.60;;;;;;5051949;28;20456;-54
2022/02/12 08:30:14;;;;;;;31.63;29.47;;;18.70;91.40;;;;;;5044246;28;20468;-50
2022/02/12 08:32:43;;;;;;;29.10;27.30;;;18.70;94.10;;;;;;5056260;28;20445;-47
2022/02/12 08:35:11;;;;;;;31.07;29.03;;;18.70;96.50;;;;;;5056690;28;20441;-46
2022/02/12 08:37:41;;;;;;;31.57;29.23;;;18.70;98.30;;;;;;5057101;28;20436;-49
2022/02/12 08:40:10;;;;;;;30.33;28.30;;;18.70;98.50;;;;;;5044725;28;20476;-53
2022/02/12 08:42:39;;;;;;;31.63;29.50;;;18.70;99.10;;;;;;5034026;28;20445;-50
2022/02/12 08:45:07;;;;;;;33.70;31.43;;;18.60;93.30;;;;;;5033670;28;20442;-53
2022/02/12 08:47:34;;;;;;;28.73;26.70;;;18.50;91.00;;;;;;5043477;28;20444;-52
2022/02/12 08:50:01;;;;;;;30.87;27.90;;;18.50;91.80;;;;;;5055206;28;20555;-48
2022/02/12 08:52:29;;;;;;;32.57;30.87;;;18.50;92.20;;;;;;5053679;28;20440;-47
2022/02/12 08:54:57;;;;;;;29.53;27.80;;;18.50;94.30;;;;;;5052698;28;20546;-47
2022/02/12 08:57:23;;;;;;;31.40;29.50;;;18.60;95.40;;;;;;5046586;28;20452;-46
2022/02/12 08:59:50;;;;;;;33.33;31.40;;;18.70;95.30;;;;;;5033732;28;20465;-46
2022/02/12 09:02:17;;;;;;;32.07;30.10;;;18.60;95.00;;;;;;5034467;28;20453;-46
2022/02/12 09:04:44;;;;;;;30.10;28.17;;;18.50;95.10;;;;;;5034561;28;20452;-46
2022/02/12 09:07:11;;;;;;;29.50;27.90;;;18.50;95.60;;;;;;5033993;28;20442;-46
2022/02/12 09:09:39;;;;;;;34.57;32.70;;;18.50;95.40;;;;;;5033863;28;20515;-52
2022/02/12 09:12:08;;;;;;;30.10;28.70;;;18.60;95.20;;;;;;5034459;28;20450;-47
2022/02/12 09:14:35;;;;;;;32.60;30.90;;;18.60;94.70;;;;;;5053270;28;20488;-46
2022/02/12 09:17:01;;;;;;;33.40;31.17;;;18.60;94.20;;;;;;5053641;28;20451;-47
2022/02/12 09:19:29;;;;;;;33.37;31.67;;;18.60;93.90;;;;;;5053148;28;20833;-48
2022/02/12 09:21:55;;;;;;;31.67;29.50;;;18.60;93.60;;;;;;5053426;28;20452;-48
2022/02/12 09:24:22;;;;;;;29.63;27.90;;;18.60;93.60;;;;;;5049872;28;20472;-46
2022/02/12 09:26:49;;;;;;;32.33;30.50;;;18.60;93.20;;;;;;5032903;28;20452;-45
2022/02/12 09:29:17;;;;;;;26.35;24.95;;;18.60;92.80;;;;;;5032125;28;20528;-47
2022/02/12 09:31:44;;;;;;;26.47;24.87;;;18.70;92.50;;;;;;5033551;28;20210;-51
2022/02/12 09:34:11;;;;;;;25.93;24.57;;;18.70;92.20;;;;;;5033704;28;20489;-51
2022/02/12 09:36:38;;;;;;;28.60;26.87;;;18.70;91.70;;;;;;5036840;28;20459;-47
2022/02/12 09:39:05;;;;;;;28.10;26.77;;;18.70;91.70;;;;;;5054876;28;20473;-49
2022/02/12 09:41:32;;;;;;;26.20;24.60;;;18.70;91.60;;;;;;5053054;28;20444;-52
2022/02/12 09:43:58;;;;;;;28.37;26.97;;;18.80;91.00;;;;;;5052118;28;20906;-52
2022/02/12 09:47:08;;;;;;;30.50;29.10;;;18.70;90.50;;;;;;5036408;28;20448;-49
2022/02/12 09:49:35;;;;;;;27.77;26.37;;;18.70;90.00;;;;;;5004302;28;20489;-48
2022/02/12 09:52:03;;;;;;;29.27;27.77;;;18.70;89.80;;;;;;5033200;28;20766;-48
2022/02/12 09:54:31;;;;;;;29.40;27.80;;;18.70;90.00;;;;;;5032177;28;20492;-47
2022/02/12 09:56:59;;;;;;;28.90;27.60;;;18.70;89.70;;;;;;5033093;28;20553;-48
2022/02/12 09:59:26;;;;;;;29.40;27.90;;;18.70;89.80;;;;;;5034619;28;20466;-49
2022/02/12 10:01:52;;;;;;;28.13;26.73;;;18.70;89.60;;;;;;5034115;28;20449;-47
2022/02/12 10:04:21;;;;;;;28.40;27.10;;;18.70;89.20;;;;;;5033663;28;20843;-47
2022/02/12 10:06:48;;;;;;;29.90;28.50;;;18.70;88.80;;;;;;5034951;28;20456;-48
2022/02/12 10:09:15;;;;;;;28.47;27.07;;;18.70;88.60;;;;;;5053275;28;20464;-50
2022/02/12 10:11:45;;;;;;;31.20;29.60;;;18.70;88.50;;;;;;5051917;28;20440;-47
2022/02/12 10:14:13;;;;;;;29.30;27.70;;;18.70;87.70;;;;;;5053609;28;20480;-47
2022/02/12 10:16:58;;;;;;;30.77;29.33;;;18.80;87.30;;;;;;5054227;28;20441;-48
2022/02/12 10:19:40;;;;;;;25.50;24.20;;;18.70;87.30;;;;;;5046826;28;21105;-46
2022/02/12 10:22:15;;;;;;;29.17;27.80;;;18.70;86.80;;;;;;5034657;28;20446;-48
2022/02/12 10:24:52;;;;;;;30.50;29.30;;;18.70;86.30;;;;;;5032528;28;20456;-47
2022/02/12 10:27:20;;;;;;;26.70;25.50;;;18.70;86.20;;;;;;5033588;28;20453;-46
2022/02/12 10:29:48;;;;;;;27.13;25.60;;;18.70;85.70;;;;;;5038302;28;20477;-47
2022/02/12 10:32:16;;;;;;;25.20;24.00;;;18.70;85.40;;;;;;5031473;28;20445;-50
2022/02/12 10:34:46;;;;;;;26.03;24.93;;;18.70;85.20;;;;;;5031448;28;20510;-47
2022/02/12 10:37:15;;;;;;;24.93;23.83;;;18.70;84.50;;;;;;5031240;28;20445;-49
2022/02/12 10:39:53;;;;;;;28.60;27.30;;;18.60;83.80;;;;;;5041716;28;20829;-49
2022/02/12 10:42:21;;;;;;;29.27;27.93;;;18.70;83.80;;;;;;5051264;28;20826;-47
2022/02/12 10:44:48;;;;;;;30.53;29.03;;;18.70;83.30;;;;;;5051439;28;20447;-51
2022/02/12 10:47:15;;;;;;;27.07;25.77;;;18.70;82.80;;;;;;5051142;28;20455;-51
2022/02/12 10:49:42;;;;;;;28.20;26.87;;;18.60;82.80;;;;;;5051579;28;20487;-51
2022/02/12 10:52:10;;;;;;;30.97;29.27;;;18.70;83.10;;;;;;5036933;28;20441;-52
2022/02/12 10:54:42;;;;;;;30.73;29.13;;;18.70;87.70;;;;;;5031372;28;20504;-58
2022/02/12 10:57:09;;;;;;;35.97;33.60;;;18.70;90.00;;;;;;5031020;28;20504;-47
2022/02/12 10:59:38;;;;;;;36.80;34.07;;;18.70;91.20;;;;;;5033048;28;20468;-53
2022/02/12 11:02:08;;;;;;;34.42;31.83;;;18.70;91.00;;;;;;5033591;28;20450;-48
2022/02/12 11:04:36;;;;;;;37.08;34.55;;;18.80;91.50;;;;;;5049448;28;20747;-50
2022/02/12 11:07:05;;;;;;;36.20;33.70;;;18.90;91.30;;;;;;5054119;28;20205;-50
2022/02/12 11:09:34;;;;;;;33.60;31.20;;;19.00;91.40;;;;;;5053430;28;20897;-47
2022/02/12 11:12:05;;;;;;;33.03;31.13;;;19.10;90.90;;;;;;5054676;28;20764;-51
2022/02/12 11:14:33;;;;;;;35.30;33.30;;;19.10;90.10;;;;;;5054543;28;20479;-49
2022/02/12 11:17:03;;;;;;;29.77;27.97;;;19.20;90.00;;;;;;5037243;28;20451;-47
2022/02/12 11:19:32;;;;;;;30.43;28.73;;;19.20;88.80;;;;;;5034202;28;20465;-51
2022/02/12 11:22:00;;;;;;;31.03;29.23;;;19.30;87.10;;;;;;5034170;28;20445;-48
2022/02/12 11:24:39;;;;;;;27.90;26.57;;;19.30;85.90;;;;;;5034470;28;20532;-49
2022/02/12 11:27:21;;;;;;;27.77;26.40;;;19.50;84.90;;;;;;5035405;28;20437;-48
2022/02/12 11:29:50;;;;;;;26.27;25.00;;;19.50;83.60;;;;;;5055034;28;20462;-48
2022/02/12 11:32:19;;;;;;;27.67;26.40;;;19.60;82.20;;;;;;5054329;28;20448;-50
2022/02/12 11:35:17;;;;;;;28.10;26.60;;;19.80;80.80;;;;;;5053841;28;20483;-60
2022/02/12 11:37:46;;;;;;;26.70;25.50;;;19.90;79.80;;;;;;5053991;28;20930;-50
2022/02/12 11:40:17;;;;;;;30.73;29.23;;;20.00;78.00;;;;;;5045241;28;20484;-55
2022/02/12 11:42:46;;;;;;;27.70;26.50;;;20.30;76.30;;;;;;5032687;28;20442;-49
2022/02/12 11:45:30;;;;;;;29.10;27.80;;;20.60;74.40;;;;;;5033930;28;20202;-51
2022/02/12 11:48:19;;;;;;;27.53;26.13;;;21.00;71.30;;;;;;5033657;28;20451;-50
2022/02/12 11:50:48;;;;;;;27.50;26.30;;;21.70;68.90;;;;;;5025492;28;20449;-51
2022/02/12 11:53:43;;;;;;;30.00;28.50;;;22.30;65.70;;;;;;5050231;28;20471;-57
2022/02/12 11:56:32;;;;;;;27.37;26.10;;;22.80;62.10;;;;;;5053937;28;20485;-55
2022/02/12 11:59:01;;;;;;;27.27;26.07;;;23.30;59.40;;;;;;5053678;28;20468;-48
2022/02/12 12:01:44;;;;;;;26.70;25.47;;;23.70;58.00;;;;;;5053935;28;21214;-55
2022/02/12 12:04:15;;;;;;;30.13;28.93;;;24.10;56.40;;;;;;5040775;28;20507;-52
2022/02/12 12:07:05;;;;;;;28.73;27.53;;;24.30;55.10;;;;;;5052486;28;20459;-56
2022/02/12 12:09:33;;;;;;;28.83;27.53;;;24.40;54.10;;;;;;5053017;28;20473;-51
2022/02/12 12:12:19;;;;;;;27.27;25.97;;;24.60;53.40;;;;;;5053181;28;20459;-54
2022/02/12 12:14:46;;;;;;;28.47;27.27;;;24.60;52.60;;;;;;5046897;28;20477;-55
2022/02/12 12:17:14;;;;;;;31.40;30.00;;;24.60;52.30;;;;;;5033141;28;20777;-56
2022/02/12 12:19:50;;;;;;;29.77;28.47;;;24.70;51.90;;;;;;5034234;28;20473;-55
2022/02/12 12:22:19;;;;;;;29.33;28.00;;;24.70;51.50;;;;;;5051566;28;20444;-58
2022/02/12 12:24:46;;;;;;;33.63;32.27;;;24.70;51.20;;;;;;5052652;28;20441;-56
2022/02/12 12:27:15;;;;;;;31.17;29.77;;;24.60;50.90;;;;;;5040340;28;20446;-57
2022/02/12 12:32:30;;;;;;;30.60;29.30;;;24.70;50.70;;;;;;5033050;28;20420;-55
2022/02/12 12:35:00;;;;;;;34.33;32.70;;;24.50;50.40;;;;;;5048037;28;20479;-51
2022/02/12 12:37:29;;;;;;;32.70;31.20;;;24.60;50.50;;;;;;5032787;28;20445;-53
2022/02/12 12:39:57;;;;;;;29.93;28.63;;;24.80;50.20;;;;;;5032581;28;20476;-52
2022/02/12 12:42:26;;;;;;;29.37;28.17;;;24.90;50.10;;;;;;5032496;28;20453;-57
2022/02/12 12:45:01;;;;;;;28.37;27.13;;;24.90;49.70;;;;;;5033540;28;20935;-56